Time;durP1;ratioP1;P1;durP2;ratioP2;P2;SDS_P1;SDS_P2;PMS_P1;PMS_P2;Temp;Humidity;BMP_temperature;BMP_pressure;BME280_temperature;BME280_humidity;BME280_pressure;Samples;Min_cycle;Max_cycle;Signal;HPM_P1;HPM_P2
2023/07/11 00:00:25;;;;;;;4.53;2.10;;;20.60;99.90;;;;;;5056292;28;20563;-81
2023/07/11 00:02:52;;;;;;;3.50;2.57;;;20.60;99.90;;;;;;5056091;28;20459;-78
2023/07/11 00:05:19;;;;;;;4.70;2.60;;;20.50;99.90;;;;;;5072552;28;20463;-81
2023/07/11 00:07:48;;;;;;;5.90;2.67;;;20.20;99.90;;;;;;5068351;28;20484;-82
2023/07/11 00:10:18;;;;;;;4.73;2.73;;;20.70;99.90;;;;;;5067969;28;20476;-82
2023/07/11 00:12:45;;;;;;;3.30;2.13;;;20.50;99.90;;;;;;5066894;28;20458;-80
2023/07/11 00:15:14;;;;;;;6.27;2.83;;;20.30;99.90;;;;;;5064322;28;20460;-81
2023/07/11 00:17:41;;;;;;;4.60;2.77;;;20.50;99.90;;;;;;5070147;28;20506;-80
2023/07/11 00:20:10;;;;;;;5.33;2.53;;;20.40;1.00;;;;;;5076647;28;20587;-83
2023/07/11 00:22:37;;;;;;;6.33;2.63;;;20.40;99.90;;;;;;5076320;28;20455;-83
2023/07/11 00:25:16;;;;;;;3.03;2.40;;;20.40;99.90;;;;;;5076004;28;20984;-79
2023/07/11 00:27:43;;;;;;;4.23;2.50;;;20.40;99.90;;;;;;5075569;28;20550;-82
2023/07/11 00:30:11;;;;;;;3.40;2.50;;;20.40;99.90;;;;;;5063877;28;20475;-82
2023/07/11 00:32:38;;;;;;;5.40;3.00;;;20.30;1.00;;;;;;5056084;28;20448;-82
2023/07/11 00:35:05;;;;;;;5.83;2.60;;;20.10;1.00;;;;;;5055573;28;20550;-81
2023/07/11 00:37:32;;;;;;;3.77;2.57;;;20.10;1.00;;;;;;5055328;28;20562;-82
2023/07/11 00:39:59;;;;;;;4.63;2.60;;;20.30;1.00;;;;;;5056127;28;20472;-82
2023/07/11 00:42:27;;;;;;;6.03;2.57;;;20.50;1.00;;;;;;5055281;28;20543;-82
2023/07/11 00:44:56;;;;;;;6.13;2.87;;;20.50;1.00;;;;;;5056762;28;20842;-82
2023/07/11 00:47:26;;;;;;;3.70;2.53;;;20.20;99.90;;;;;;5054629;28;20440;-83
2023/07/11 00:49:56;;;;;;;6.67;2.40;;;20.10;99.90;;;;;;5050317;28;20488;-80
2023/07/11 00:52:26;;;;;;;4.27;2.53;;;19.80;98.80;;;;;;5055681;28;20497;-83
2023/07/11 00:55:21;;;;;;;4.03;2.80;;;20.40;5.40;;;;;;5056432;28;20460;-79
2023/07/11 00:58:05;;;;;;;5.57;2.20;;;19.80;1.00;;;;;;5055344;28;20832;-83
2023/07/11 01:00:37;;;;;;;4.83;2.70;;;20.10;99.90;;;;;;5056424;28;20522;-79
2023/07/11 01:03:06;;;;;;;3.93;2.30;;;20.10;1.00;;;;;;5056817;28;20448;-82
2023/07/11 01:05:40;;;;;;;3.97;2.50;;;20.20;1.00;;;;;;5057704;28;20482;-81
2023/07/11 01:08:08;;;;;;;5.83;2.50;;;19.70;1.00;;;;;;5066499;28;20472;-81
2023/07/11 01:10:37;;;;;;;3.87;2.80;;;20.10;99.90;;;;;;5054397;28;20984;-80
2023/07/11 01:13:05;;;;;;;8.23;2.90;;;20.00;1.00;;;;;;5056614;28;20959;-79
2023/07/11 01:15:32;;;;;;;4.23;2.83;;;20.00;99.90;;;;;;5054975;28;20470;-82
2023/07/11 01:17:59;;;;;;;3.73;2.70;;;20.00;99.90;;;;;;5055811;28;20447;-82
2023/07/11 01:20:26;;;;;;;4.83;2.40;;;20.00;1.00;;;;;;5055206;28;21089;-81
2023/07/11 01:22:55;;;;;;;4.27;2.53;;;19.80;1.00;;;;;;5053358;28;20448;-80
2023/07/11 01:25:23;;;;;;;4.07;2.30;;;19.90;99.90;;;;;;5055889;28;20453;-81
2023/07/11 01:27:51;;;;;;;3.77;2.03;;;19.60;29.80;;;;;;5057347;28;20497;-81
2023/07/11 01:30:20;;;;;;;3.70;2.77;;;19.90;1.00;;;;;;5060525;28;21017;-81
2023/07/11 01:32:47;;;;;;;3.13;2.00;;;19.90;1.00;;;;;;5059706;28;20960;-82
2023/07/11 01:35:15;;;;;;;2.93;1.97;;;19.90;1.00;;;;;;5059571;28;20456;-81
2023/07/11 01:37:42;;;;;;;3.80;2.33;;;20.20;10.00;;;;;;5060306;28;20451;-81
2023/07/11 01:40:10;;;;;;;4.27;2.47;;;19.90;1.00;;;;;;5058829;28;21290;-81
2023/07/11 01:42:38;;;;;;;2.77;2.10;;;19.90;1.00;;;;;;5059404;28;20454;-80
2023/07/11 01:45:09;;;;;;;6.60;2.67;;;19.80;1.00;;;;;;5059186;28;20454;-80
2023/07/11 01:47:36;;;;;;;4.43;2.20;;;19.80;1.00;;;;;;5039473;28;20441;-82
2023/07/11 01:50:03;;;;;;;3.40;2.30;;;19.80;1.00;;;;;;5038936;28;20496;-79
2023/07/11 01:52:29;;;;;;;4.00;2.30;;;19.80;99.90;;;;;;5040036;28;20543;-79
2023/07/11 01:54:56;;;;;;;3.63;2.40;;;19.80;1.00;;;;;;5042195;28;20548;-81
2023/07/11 01:57:24;;;;;;;3.13;1.63;;;19.80;1.00;;;;;;5058818;28;20451;-82
2023/07/11 02:00:03;;;;;;;;;;;;;;;;;;;;;
2023/07/11 02:02:30;;;;;;;3.10;2.57;;;19.70;99.90;;;;;;5058880;28;20542;-82
2023/07/11 02:04:57;;;;;;;3.43;2.30;;;19.70;1.00;;;;;;5059906;28;20978;-78
2023/07/11 02:07:24;;;;;;;5.70;2.53;;;19.70;99.90;;;;;;5059333;28;20460;-81
2023/07/11 02:09:54;;;;;;;4.07;2.60;;;19.70;1.00;;;;;;5059554;28;20496;-82
2023/07/11 02:12:20;;;;;;;3.33;2.10;;;19.70;99.90;;;;;;5059466;28;20837;-81
2023/07/11 02:14:48;;;;;;;4.43;2.10;;;19.60;1.00;;;;;;5059500;28;20488;-82
2023/07/11 02:17:16;;;;;;;4.60;2.20;;;19.60;1.00;;;;;;5058479;28;20452;-79
2023/07/11 02:19:44;;;;;;;3.70;2.23;;;20.30;99.90;;;;;;5059303;28;20902;-82
2023/07/11 02:22:11;;;;;;;7.40;2.20;;;19.60;1.00;;;;;;5059279;28;20452;-82
2023/07/11 02:24:39;;;;;;;5.03;2.33;;;19.70;1.00;;;;;;5056534;28;21244;-82
2023/07/11 02:27:07;;;;;;;5.57;2.10;;;19.60;1.00;;;;;;5058540;28;20447;-81
2023/07/11 02:29:34;;;;;;;3.37;2.00;;;19.70;1.00;;;;;;5058933;28;20497;-82
2023/07/11 02:32:02;;;;;;;3.97;2.50;;;19.60;1.00;;;;;;5059107;28;20455;-82
2023/07/11 02:34:29;;;;;;;4.27;2.23;;;19.80;1.00;;;;;;5058143;28;20543;-80
2023/07/11 02:37:10;;;;;;;4.00;2.53;;;19.80;1.00;;;;;;5057868;28;20460;-77
2023/07/11 02:39:36;;;;;;;3.80;2.40;;;19.80;1.00;;;;;;5058192;28;20857;-79
2023/07/11 02:42:04;;;;;;;5.90;2.00;;;19.40;99.90;;;;;;5057580;28;20452;-77
2023/07/11 02:44:30;;;;;;;3.90;1.87;;;19.40;1.00;;;;;;5059075;28;20466;-78
2023/07/11 02:46:57;;;;;;;4.40;1.87;;;19.50;99.90;;;;;;5057340;28;20459;-80
2023/07/11 02:49:25;;;;;;;4.40;2.10;;;19.30;1.00;;;;;;5058097;28;20849;-81
2023/07/11 02:51:52;;;;;;;4.43;2.20;;;19.30;1.00;;;;;;5058795;28;20451;-77
2023/07/11 02:54:19;;;;;;;3.70;2.13;;;;;;;;;;5057753;28;20463;-80
2023/07/11 02:56:46;;;;;;;4.07;2.07;;;19.50;1.00;;;;;;5058193;28;20464;-82
2023/07/11 02:59:13;;;;;;;4.10;2.10;;;19.10;99.90;;;;;;5058040;28;20545;-82
2023/07/11 03:01:39;;;;;;;3.60;2.10;;;19.50;1.00;;;;;;5059586;28;20535;-80
2023/07/11 03:04:06;;;;;;;6.23;2.07;;;19.20;1.00;;;;;;5058849;28;20448;-82
2023/07/11 03:06:35;;;;;;;4.40;2.20;;;19.70;99.90;;;;;;5058744;28;20459;-82
2023/07/11 03:09:01;;;;;;;2.40;1.60;;;19.40;1.00;;;;;;5059030;28;20480;-82
2023/07/11 03:11:28;;;;;;;3.10;2.10;;;19.30;1.00;;;;;;5063285;28;20483;-79
2023/07/11 03:13:55;;;;;;;3.47;2.00;;;19.40;51.50;;;;;;5059848;28;21023;-81
2023/07/11 03:16:22;;;;;;;6.97;1.93;;;19.60;1.00;;;;;;5058084;28;20517;-82
2023/07/11 03:18:48;;;;;;;5.43;2.20;;;19.20;1.00;;;;;;5057854;28;20678;-82
2023/07/11 03:21:15;;;;;;;4.20;2.20;;;19.20;1.00;;;;;;5055215;28;20467;-78
2023/07/11 03:23:52;;;;;;;3.63;1.87;;;19.40;1.00;;;;;;5058129;28;20463;-81
2023/07/11 03:26:19;;;;;;;5.20;2.20;;;19.50;99.90;;;;;;5057618;28;20442;-81
2023/07/11 03:28:46;;;;;;;3.70;2.17;;;19.60;64.80;;;;;;5057976;28;20487;-82
2023/07/11 03:31:12;;;;;;;4.70;2.23;;;19.20;1.00;;;;;;5058647;28;20499;-82
2023/07/11 03:33:39;;;;;;;3.90;1.80;;;19.70;13.90;;;;;;5057743;28;20461;-80
2023/07/11 03:36:06;;;;;;;4.20;1.93;;;19.30;1.00;;;;;;5058253;28;20538;-82
2023/07/11 03:38:33;;;;;;;10.73;1.97;;;19.50;99.90;;;;;;5057898;28;20456;-82
2023/07/11 03:41:01;;;;;;;6.60;2.40;;;19.30;99.90;;;;;;5057166;28;20543;-81
2023/07/11 03:43:28;;;;;;;3.13;2.03;;;19.10;1.00;;;;;;5056848;28;20543;-78
2023/07/11 03:45:55;;;;;;;4.20;2.07;;;19.50;31.20;;;;;;5056228;28;20948;-82
2023/07/11 03:48:27;;;;;;;3.50;1.90;;;19.30;1.00;;;;;;5056904;28;20466;-78
2023/07/11 03:51:03;;;;;;;3.60;1.80;;;19.40;99.90;;;;;;5056333;28;20816;-79
2023/07/11 03:53:30;;;;;;;3.70;1.97;;;;;;;;;;5057983;28;20432;-82
2023/07/11 03:55:57;;;;;;;3.03;1.70;;;19.00;1.00;;;;;;5056500;28;20901;-82
2023/07/11 03:58:25;;;;;;;3.80;2.37;;;19.30;35.40;;;;;;5058166;28;21038;-82
2023/07/11 04:00:52;;;;;;;4.07;2.20;;;19.40;99.90;;;;;;5057417;28;20501;-80
2023/07/11 04:03:19;;;;;;;3.50;2.07;;;18.90;1.00;;;;;;5057470;28;20462;-81
2023/07/11 04:05:46;;;;;;;4.27;1.93;;;19.30;99.90;;;;;;5057027;28;20451;-83
2023/07/11 04:08:13;;;;;;;3.97;2.00;;;19.10;39.40;;;;;;5056920;28;20448;-83
2023/07/11 04:10:39;;;;;;;3.00;1.60;;;19.10;99.90;;;;;;5056549;28;21034;-80
2023/07/11 04:13:06;;;;;;;3.27;1.80;;;19.10;1.00;;;;;;5057613;28;20808;-81
2023/07/11 04:15:34;;;;;;;2.50;1.60;;;19.40;1.00;;;;;;5056207;28;20448;-83
2023/07/11 04:18:01;;;;;;;3.87;2.10;;;19.10;99.90;;;;;;5055507;28;20452;-79
2023/07/11 04:20:30;;;;;;;4.67;1.97;;;19.60;99.90;;;;;;5056189;28;20929;-78
2023/07/11 04:22:57;;;;;;;3.80;1.83;;;19.50;99.90;;;;;;5055760;28;20458;-79
2023/07/11 04:25:23;;;;;;;4.63;2.13;;;19.60;99.90;;;;;;5057488;28;20827;-79
2023/07/11 04:27:50;;;;;;;3.70;1.87;;;19.50;81.80;;;;;;5055766;28;20456;-78
2023/07/11 04:30:17;;;;;;;3.63;2.10;;;19.30;1.00;;;;;;5052855;28;20499;-81
2023/07/11 04:32:45;;;;;;;4.20;2.00;;;19.40;1.00;;;;;;5054228;28;20535;-80
2023/07/11 04:35:14;;;;;;;4.17;1.83;;;19.40;99.90;;;;;;5054403;28;20960;-78
2023/07/11 04:37:41;;;;;;;3.53;1.63;;;19.60;1.00;;;;;;5054671;28;21109;-78
2023/07/11 04:40:14;;;;;;;3.40;2.30;;;19.70;99.90;;;;;;5054008;28;20502;-78
2023/07/11 04:42:41;;;;;;;3.27;2.20;;;20.00;99.90;;;;;;5054478;28;20471;-78
2023/07/11 04:45:12;;;;;;;3.73;1.93;;;20.00;22.50;;;;;;5053869;28;20454;-79
2023/07/11 04:47:39;;;;;;;4.00;2.60;;;19.80;1.00;;;;;;5053660;28;20465;-78
2023/07/11 04:50:08;;;;;;;4.97;1.90;;;19.80;99.90;;;;;;5054207;28;20498;-80
2023/07/11 04:52:35;;;;;;;2.87;2.00;;;19.70;61.30;;;;;;5055564;28;20456;-77
2023/07/11 04:55:03;;;;;;;5.27;2.17;;;19.90;1.00;;;;;;5053790;28;20530;-81
2023/07/11 04:57:29;;;;;;;4.27;2.07;;;20.20;99.90;;;;;;5051109;28;20452;-80
2023/07/11 04:59:56;;;;;;;5.27;2.80;;;20.40;74.90;;;;;;5053573;28;20468;-81
2023/07/11 05:02:25;;;;;;;4.40;2.30;;;;;;;;;;5052408;28;20833;-81
2023/07/11 05:04:52;;;;;;;3.73;2.53;;;19.90;1.00;;;;;;5054662;28;20973;-80
2023/07/11 05:07:20;;;;;;;3.63;2.53;;;19.90;99.90;;;;;;5053148;28;20469;-82
2023/07/11 05:09:47;;;;;;;4.70;2.40;;;20.00;18.10;;;;;;5033182;28;20489;-82
2023/07/11 05:12:15;;;;;;;2.37;2.00;;;20.30;99.90;;;;;;5088886;22;20491;-81
2023/07/11 05:14:42;;;;;;;4.90;2.37;;;20.30;99.90;;;;;;5077708;28;20447;-80
2023/07/11 05:17:09;;;;;;;4.83;2.57;;;;;;;;;;5078057;28;20439;-82
2023/07/11 05:19:36;;;;;;;3.07;1.90;;;20.40;99.90;;;;;;5086697;28;20451;-80
2023/07/11 05:22:03;;;;;;;3.10;1.80;;;20.50;1.00;;;;;;5071385;28;20467;-79
2023/07/11 05:24:31;;;;;;;4.87;2.10;;;20.50;99.90;;;;;;5064652;28;20554;-81
2023/07/11 05:26:58;;;;;;;3.30;1.90;;;20.60;1.00;;;;;;5081092;28;20893;-81
2023/07/11 05:29:25;;;;;;;5.30;2.10;;;20.70;1.00;;;;;;5072825;28;20581;-81
2023/07/11 05:31:52;;;;;;;4.60;2.60;;;20.70;19.10;;;;;;5076855;28;20488;-79
2023/07/11 05:34:19;;;;;;;4.20;2.50;;;;;;;;;;5076406;28;20447;-80
2023/07/11 05:36:46;;;;;;;3.30;2.27;;;20.80;99.90;;;;;;5076759;28;20531;-80
2023/07/11 05:39:15;;;;;;;4.20;2.40;;;21.00;1.00;;;;;;5082640;28;20443;-80
2023/07/11 05:41:47;;;;;;;4.53;2.60;;;21.00;1.00;;;;;;5075828;28;20591;-81
2023/07/11 05:44:15;;;;;;;3.20;1.97;;;21.00;99.90;;;;;;5071984;28;20451;-80
2023/07/11 05:46:42;;;;;;;5.37;2.47;;;21.10;99.90;;;;;;5071925;28;20958;-80
2023/07/11 05:49:09;;;;;;;5.43;1.60;;;21.20;99.90;;;;;;5072949;28;20454;-80
2023/07/11 05:51:36;;;;;;;5.00;2.37;;;21.30;99.90;;;;;;5073911;28;20471;-82
2023/07/11 05:54:03;;;;;;;5.07;2.73;;;21.40;99.90;;;;;;5078444;28;20453;-79
2023/07/11 05:56:30;;;;;;;3.77;2.07;;;21.50;98.50;;;;;;5077874;28;20451;-81
2023/07/11 05:58:59;;;;;;;4.00;2.13;;;21.60;99.90;;;;;;5077912;28;20485;-82
2023/07/11 06:01:28;;;;;;;5.00;2.10;;;21.60;99.90;;;;;;5075788;28;20516;-80
2023/07/11 06:04:05;;;;;;;5.63;2.23;;;21.70;89.90;;;;;;5072386;28;20451;-82
2023/07/11 06:06:34;;;;;;;3.00;1.73;;;21.80;15.60;;;;;;5075986;28;20461;-80
2023/07/11 06:09:01;;;;;;;3.33;2.07;;;21.90;1.00;;;;;;5080152;28;20466;-81
2023/07/11 06:11:28;;;;;;;3.90;2.20;;;21.90;32.50;;;;;;5071850;28;20501;-78
2023/07/11 06:13:54;;;;;;;4.83;2.37;;;22.00;33.80;;;;;;5075622;28;20459;-80
2023/07/11 06:16:23;;;;;;;3.40;2.30;;;22.00;1.00;;;;;;5076704;28;20438;-80
2023/07/11 06:18:52;;;;;;;2.47;1.80;;;22.10;1.00;;;;;;5077287;28;20447;-81
2023/07/11 06:21:19;;;;;;;4.00;2.20;;;22.10;1.00;;;;;;5076506;28;20470;-79
2023/07/11 06:23:47;;;;;;;10.40;2.60;;;22.20;1.00;;;;;;5077002;28;20519;-78
2023/07/11 06:26:14;;;;;;;4.10;1.93;;;22.20;1.00;;;;;;5076841;28;20508;-82
2023/07/11 06:28:41;;;;;;;3.37;1.80;;;22.30;1.00;;;;;;5075301;28;20543;-80
2023/07/11 06:31:11;;;;;;;4.83;2.07;;;22.30;1.00;;;;;;5076316;28;20498;-80
2023/07/11 06:33:39;;;;;;;2.90;1.60;;;22.50;1.00;;;;;;5074143;28;20541;-79
2023/07/11 06:36:07;;;;;;;3.90;2.17;;;22.50;1.00;;;;;;5075499;28;20977;-78
2023/07/11 06:38:34;;;;;;;5.07;2.20;;;22.60;1.00;;;;;;5077175;28;20542;-84
2023/07/11 06:41:02;;;;;;;3.70;2.00;;;22.70;1.00;;;;;;5079487;28;20539;-82
2023/07/11 06:43:29;;;;;;;4.90;2.20;;;22.70;1.00;;;;;;5082103;28;20455;-82
2023/07/11 06:45:59;;;;;;;3.80;1.90;;;22.90;1.00;;;;;;5075439;28;20462;-78
2023/07/11 06:48:29;;;;;;;2.60;1.70;;;22.90;1.00;;;;;;5077354;28;20453;-80
2023/07/11 06:50:59;;;;;;;5.30;2.30;;;22.90;1.00;;;;;;5076129;28;20570;-78
2023/07/11 06:53:29;;;;;;;3.03;1.90;;;23.10;1.00;;;;;;5078016;28;20505;-79
2023/07/11 06:55:56;;;;;;;4.17;1.90;;;23.10;1.00;;;;;;5075236;28;20451;-80
2023/07/11 06:58:23;;;;;;;2.50;1.90;;;23.20;1.00;;;;;;5082097;28;20527;-81
2023/07/11 07:00:55;;;;;;;3.00;1.90;;;23.30;1.00;;;;;;5081175;28;20467;-81
2023/07/11 07:03:22;;;;;;;3.90;2.40;;;23.30;1.00;;;;;;5080607;28;20443;-83
2023/07/11 07:05:50;;;;;;;4.10;2.33;;;23.40;1.00;;;;;;5080789;28;20796;-80
2023/07/11 07:08:19;;;;;;;5.77;2.10;;;23.40;1.00;;;;;;5081818;28;20872;-82
2023/07/11 07:10:47;;;;;;;4.30;2.17;;;23.40;1.00;;;;;;5082102;28;20487;-83
2023/07/11 07:13:15;;;;;;;3.43;1.63;;;23.40;1.00;;;;;;5080924;28;20451;-80
2023/07/11 07:15:42;;;;;;;5.00;2.07;;;23.50;1.00;;;;;;5081597;28;20451;-81
2023/07/11 07:18:09;;;;;;;4.40;2.03;;;23.60;1.00;;;;;;5080820;28;20461;-81
2023/07/11 07:20:36;;;;;;;5.57;2.20;;;;;;;;;;5081591;28;21039;-80
2023/07/11 07:23:04;;;;;;;5.57;2.23;;;23.70;1.00;;;;;;5080577;28;20461;-80
2023/07/11 07:25:33;;;;;;;3.07;1.90;;;23.80;1.00;;;;;;5080722;28;20455;-79
2023/07/11 07:27:59;;;;;;;4.03;2.07;;;23.90;1.00;;;;;;5081882;28;20542;-81
2023/07/11 07:30:27;;;;;;;4.13;2.10;;;;;;;;;;5083048;28;20498;-81
2023/07/11 07:32:54;;;;;;;5.30;2.37;;;;;;;;;;5083469;28;20481;-82
2023/07/11 07:35:21;;;;;;;3.63;1.80;;;24.10;1.00;;;;;;5077765;28;21202;-83
2023/07/11 07:37:48;;;;;;;5.80;2.30;;;;;;;;;;5089853;28;20879;-79
2023/07/11 07:40:16;;;;;;;5.80;2.33;;;24.20;1.00;;;;;;5079986;28;20922;-80
2023/07/11 07:42:45;;;;;;;4.27;2.40;;;24.30;1.00;;;;;;5078667;28;20562;-80
2023/07/11 07:45:11;;;;;;;4.00;1.70;;;24.40;1.00;;;;;;5080489;28;20496;-79
2023/07/11 07:47:38;;;;;;;2.43;1.57;;;24.40;1.00;;;;;;5078977;28;20455;-80
2023/07/11 07:50:06;;;;;;;4.97;2.20;;;24.50;1.00;;;;;;5079113;28;20573;-80
2023/07/11 07:52:33;;;;;;;3.40;2.33;;;24.60;1.00;;;;;;5078777;28;20475;-82
2023/07/11 07:54:59;;;;;;;3.60;1.90;;;24.70;1.00;;;;;;5079219;28;20482;-82
2023/07/11 07:57:26;;;;;;;4.63;1.87;;;24.70;1.00;;;;;;5078699;28;20523;-82
2023/07/11 07:59:54;;;;;;;4.43;2.67;;;24.80;1.00;;;;;;5079905;28;20458;-82
2023/07/11 08:02:21;;;;;;;4.00;2.00;;;24.90;1.00;;;;;;5081091;28;20477;-81
2023/07/11 08:04:48;;;;;;;5.60;2.40;;;25.00;1.00;;;;;;5078418;28;20535;-81
2023/07/11 08:07:15;;;;;;;4.27;2.30;;;25.00;1.00;;;;;;5076539;28;20459;-80
2023/07/11 08:09:42;;;;;;;3.57;2.50;;;25.10;1.00;;;;;;5079912;28;20462;-81
2023/07/11 08:12:11;;;;;;;3.80;1.80;;;25.20;1.00;;;;;;5076401;28;20490;-81
2023/07/11 08:14:39;;;;;;;4.47;2.13;;;25.30;1.00;;;;;;5078300;28;20459;-81
2023/07/11 08:17:09;;;;;;;3.90;2.03;;;25.30;1.00;;;;;;5078207;28;20465;-81
2023/07/11 08:19:36;;;;;;;5.77;2.53;;;25.40;1.00;;;;;;5079969;28;20461;-80
2023/07/11 08:22:04;;;;;;;6.23;2.63;;;25.50;1.00;;;;;;5079953;28;20553;-80
2023/07/11 08:24:30;;;;;;;3.83;2.07;;;25.60;1.00;;;;;;5079319;28;20461;-81
2023/07/11 08:26:58;;;;;;;5.40;2.40;;;;;;;;;;5078709;28;20454;-81
2023/07/11 08:29:25;;;;;;;4.23;2.43;;;25.70;1.00;;;;;;5077943;28;20577;-81
2023/07/11 08:31:52;;;;;;;4.00;2.20;;;;;;;;;;5080516;28;20495;-79
2023/07/11 08:34:20;;;;;;;5.00;2.00;;;25.90;99.90;;;;;;5086174;28;20454;-82
2023/07/11 08:36:47;;;;;;;4.23;2.27;;;26.00;99.90;;;;;;5077947;28;20551;-79
2023/07/11 08:39:14;;;;;;;3.63;2.00;;;;;;;;;;5080450;28;20461;-82
2023/07/11 08:41:45;;;;;;;5.87;2.00;;;26.10;99.90;;;;;;5083819;28;20486;-79
2023/07/11 08:44:18;;;;;;;4.40;2.33;;;26.20;99.90;;;;;;5081415;28;20462;-80
2023/07/11 08:46:51;;;;;;;3.20;1.73;;;26.30;99.90;;;;;;5076493;28;20439;-81
2023/07/11 08:49:26;;;;;;;2.70;1.40;;;26.60;99.90;;;;;;5080053;28;20455;-83
2023/07/11 08:51:57;;;;;;;4.33;1.83;;;26.70;99.90;;;;;;5078573;28;20504;-80
2023/07/11 08:54:28;;;;;;;4.87;2.10;;;26.70;99.90;;;;;;5078120;28;20431;-82
2023/07/11 08:56:58;;;;;;;3.70;2.03;;;26.50;99.90;;;;;;5077767;28;20443;-82
2023/07/11 08:59:32;;;;;;;5.97;2.00;;;26.60;99.90;;;;;;5075864;28;20449;-81
2023/07/11 09:02:07;;;;;;;2.70;1.40;;;26.60;99.90;;;;;;5069567;28;20216;-80
2023/07/11 09:04:38;;;;;;;6.17;2.27;;;26.70;99.90;;;;;;5073169;28;20442;-81
2023/07/11 09:07:25;;;;;;;4.10;2.33;;;27.00;99.90;;;;;;5073181;28;20455;-80
2023/07/11 09:09:52;;;;;;;4.30;1.90;;;27.10;99.90;;;;;;5065111;28;20558;-79
2023/07/11 09:12:27;;;;;;;2.90;1.70;;;27.30;99.90;;;;;;5073475;28;20517;-82
2023/07/11 09:15:02;;;;;;;3.17;2.07;;;27.60;99.90;;;;;;5073706;28;20459;-81
2023/07/11 09:17:43;;;;;;;4.83;1.83;;;27.70;99.90;;;;;;5065126;28;20450;-80
2023/07/11 09:20:23;;;;;;;3.83;2.20;;;27.90;99.90;;;;;;5072405;28;20450;-80
2023/07/11 09:23:00;;;;;;;3.37;2.00;;;28.10;99.90;;;;;;5072553;28;20482;-81
2023/07/11 09:25:32;;;;;;;5.70;2.10;;;28.20;99.90;;;;;;5068376;28;20538;-78
2023/07/11 09:28:06;;;;;;;6.83;2.43;;;28.40;99.90;;;;;;5070887;28;20443;-81
2023/07/11 09:30:36;;;;;;;4.93;2.37;;;28.40;99.90;;;;;;5073450;28;20468;-81
2023/07/11 09:33:14;;;;;;;6.07;2.17;;;28.40;99.90;;;;;;5076297;28;20451;-81
2023/07/11 09:35:44;;;;;;;5.07;2.03;;;28.60;99.90;;;;;;5069533;28;20446;-78
2023/07/11 09:38:22;;;;;;;3.00;1.93;;;28.70;99.90;;;;;;5075742;28;20451;-81
2023/07/11 09:40:54;;;;;;;4.07;2.30;;;28.80;99.90;;;;;;5071966;28;20549;-80
2023/07/11 09:43:21;;;;;;;6.07;2.10;;;29.00;99.90;;;;;;5073419;28;20923;-81
2023/07/11 09:45:47;;;;;;;3.93;2.03;;;29.00;99.90;;;;;;5071263;28;20455;-80
2023/07/11 09:48:17;;;;;;;6.60;2.27;;;29.20;99.90;;;;;;5072919;28;20971;-81
2023/07/11 09:51:10;;;;;;;5.80;1.73;;;29.20;1.00;;;;;;5076548;28;20490;-81
2023/07/11 09:53:41;;;;;;;4.20;1.80;;;29.60;99.90;;;;;;5075897;28;20458;-82
2023/07/11 09:56:12;;;;;;;7.33;2.00;;;29.70;99.90;;;;;;5075306;28;20451;-83
2023/07/11 09:58:39;;;;;;;4.60;2.00;;;29.90;99.90;;;;;;5078345;28;20812;-83
2023/07/11 10:01:15;;;;;;;5.47;2.00;;;29.80;99.90;;;;;;5078009;28;20462;-82
2023/07/11 10:03:47;;;;;;;6.10;1.90;;;29.80;99.90;;;;;;5076616;28;20458;-80
2023/07/11 10:06:30;;;;;;;4.57;2.47;;;29.50;99.90;;;;;;5075151;28;20450;-81
2023/07/11 10:08:57;;;;;;;7.50;2.40;;;29.60;99.90;;;;;;5077547;28;20462;-83
2023/07/11 10:11:24;;;;;;;5.83;2.53;;;29.90;99.90;;;;;;5073842;28;20508;-81
2023/07/11 10:13:56;;;;;;;3.53;1.90;;;29.90;99.90;;;;;;5077409;28;20501;-80
2023/07/11 10:16:23;;;;;;;4.00;2.27;;;29.70;99.90;;;;;;5076996;28;20451;-81
2023/07/11 10:18:52;;;;;;;3.93;2.00;;;29.60;99.90;;;;;;5078204;28;20904;-82
2023/07/11 10:21:24;;;;;;;4.17;2.10;;;29.50;99.90;;;;;;5074224;28;21010;-81
2023/07/11 10:23:53;;;;;;;3.93;2.50;;;29.40;99.90;;;;;;5075810;28;20454;-82
2023/07/11 10:26:22;;;;;;;3.90;2.40;;;29.30;99.90;;;;;;5076356;28;20462;-84
2023/07/11 10:28:58;;;;;;;5.40;2.50;;;29.30;99.90;;;;;;5076295;28;20447;-81
2023/07/11 10:31:28;;;;;;;5.60;2.43;;;29.30;99.90;;;;;;5076869;28;20498;-82
2023/07/11 10:34:00;;;;;;;4.20;2.20;;;29.20;99.90;;;;;;5076770;28;20463;-81
2023/07/11 10:36:33;;;;;;;5.50;2.57;;;29.10;99.90;;;;;;5077228;28;20441;-79
2023/07/11 10:39:05;;;;;;;4.90;1.80;;;29.30;99.90;;;;;;5074912;28;20533;-82
2023/07/11 10:41:36;;;;;;;5.70;2.50;;;29.80;99.90;;;;;;5080924;28;20554;-82
2023/07/11 10:44:05;;;;;;;5.83;2.40;;;30.10;99.90;;;;;;5074345;28;20463;-81
2023/07/11 10:46:37;;;;;;;6.13;2.60;;;30.50;99.90;;;;;;5081227;28;20447;-81
2023/07/11 10:49:09;;;;;;;3.73;1.97;;;30.70;99.90;;;;;;5076002;28;20456;-79
2023/07/11 10:51:42;;;;;;;6.13;2.27;;;30.90;99.90;;;;;;5075694;28;20536;-82
2023/07/11 10:54:20;;;;;;;5.30;2.07;;;31.10;99.90;;;;;;5075817;28;20486;-81
2023/07/11 10:56:51;;;;;;;6.20;2.30;;;31.00;99.90;;;;;;5075639;28;20450;-83
2023/07/11 10:59:23;;;;;;;4.67;2.30;;;31.00;99.90;;;;;;5074902;28;20465;-80
2023/07/11 11:02:00;;;;;;;6.37;2.40;;;31.10;99.90;;;;;;5075823;28;20475;-80
2023/07/11 11:04:48;;;;;;;4.23;2.00;;;31.20;99.90;;;;;;5076476;28;20451;-81
2023/07/11 11:07:19;;;;;;;6.00;1.83;;;31.60;99.90;;;;;;5076369;28;20450;-81
2023/07/11 11:09:54;;;;;;;2.90;1.63;;;31.70;99.90;;;;;;5076624;28;20435;-82
2023/07/11 11:12:36;;;;;;;4.43;2.20;;;31.80;99.90;;;;;;5092060;22;20495;-83
2023/07/11 11:15:23;;;;;;;3.83;1.73;;;32.00;99.90;;;;;;5078327;28;20463;-81
2023/07/11 11:17:57;;;;;;;2.93;1.53;;;32.00;99.90;;;;;;5070821;28;20477;-83
2023/07/11 11:20:33;;;;;;;3.70;1.50;;;31.90;99.90;;;;;;5071217;28;20445;-83
2023/07/11 11:23:19;;;;;;;5.50;2.27;;;32.10;99.90;;;;;;5075440;28;20450;-83
2023/07/11 11:25:57;;;;;;;4.27;2.10;;;32.20;99.90;;;;;;5075284;28;20457;-83
2023/07/11 11:28:39;;;;;;;6.27;2.43;;;32.30;99.90;;;;;;5075287;28;20446;-76
2023/07/11 11:31:15;;;;;;;9.57;2.70;;;32.60;99.90;;;;;;5081528;28;20457;-83
2023/07/11 11:33:52;;;;;;;3.87;2.17;;;32.50;99.90;;;;;;5074413;28;20842;-83
2023/07/11 11:36:27;;;;;;;6.50;2.63;;;32.70;99.90;;;;;;5079579;28;20942;-82
2023/07/11 11:39:09;;;;;;;4.10;2.60;;;33.00;99.90;;;;;;5073604;28;20458;-82
2023/07/11 11:41:42;;;;;;;3.07;2.20;;;33.10;99.90;;;;;;5057933;28;20922;-82
2023/07/11 11:44:15;;;;;;;4.20;2.30;;;33.30;99.90;;;;;;5074118;28;20538;-81
2023/07/11 11:46:44;;;;;;;4.63;2.93;;;33.50;99.90;;;;;;5074665;28;20454;-83
2023/07/11 11:49:13;;;;;;;5.60;2.43;;;33.20;99.90;;;;;;5074785;28;20462;-83
2023/07/11 11:51:42;;;;;;;8.40;3.17;;;33.50;99.90;;;;;;5069515;28;20491;-82
2023/07/11 11:54:19;;;;;;;5.40;2.23;;;33.50;99.90;;;;;;5073867;28;20462;-83
2023/07/11 11:56:52;;;;;;;5.50;2.77;;;33.50;99.90;;;;;;5073298;28;21022;-77
2023/07/11 11:59:22;;;;;;;4.97;2.70;;;33.70;99.90;;;;;;5076013;28;20538;-84
2023/07/11 12:02:01;;;;;;;3.50;2.40;;;34.20;99.90;;;;;;5073062;28;20459;-78
2023/07/11 12:04:54;;;;;;;4.40;2.80;;;34.20;99.90;;;;;;5073696;28;20526;-82
2023/07/11 12:07:28;;;;;;;5.80;2.50;;;34.30;99.90;;;;;;5074335;28;20892;-86
2023/07/11 12:10:15;;;;;;;5.20;2.20;;;34.50;99.90;;;;;;5075845;28;20962;-81
2023/07/11 12:13:23;;;;;;;4.87;2.73;;;35.10;99.90;;;;;;5072497;28;20497;-84
2023/07/11 12:15:53;;;;;;;3.27;2.10;;;35.00;99.90;;;;;;5075094;28;21345;-84
2023/07/11 12:18:49;;;;;;;;;;;;;;;;;;;;;
2023/07/11 12:21:33;;;;;;;4.33;2.90;;;35.20;1.00;;;;;;5073966;28;20549;-84
2023/07/11 12:24:35;;;;;;;4.03;2.23;;;34.90;99.90;;;;;;5073398;28;20450;-78
2023/07/11 12:27:43;;;;;;;3.73;2.37;;;34.90;99.90;;;;;;4985144;28;20469;-83
2023/07/11 12:30:43;;;;;;;5.63;3.00;;;34.60;99.90;;;;;;5069165;28;20450;-79
2023/07/11 12:33:38;;;;;;;4.63;2.47;;;34.90;99.90;;;;;;5075697;28;21050;-79
2023/07/11 12:36:33;;;;;;;4.10;2.37;;;34.70;99.90;;;;;;5069212;28;20459;-84
2023/07/11 12:39:24;;;;;;;5.20;2.70;;;35.10;99.90;;;;;;5068165;28;20512;-77
2023/07/11 12:41:59;;;;;;;2.90;2.37;;;35.30;99.90;;;;;;5069980;28;20459;-77
2023/07/11 12:44:34;;;;;;;4.40;2.30;;;35.20;99.90;;;;;;5076925;28;20485;-83
2023/07/11 12:47:06;;;;;;;4.57;2.70;;;35.00;99.90;;;;;;5076250;28;20462;-84
2023/07/11 12:49:34;;;;;;;3.20;2.37;;;35.10;99.90;;;;;;5077752;28;20806;-85
2023/07/11 12:52:06;;;;;;;3.30;2.30;;;35.20;99.90;;;;;;5073700;28;20503;-83
2023/07/11 12:54:33;;;;;;;6.33;5.50;;;35.50;99.90;;;;;;5078385;28;20465;-84
2023/07/11 12:57:00;;;;;;;5.30;2.67;;;35.60;99.90;;;;;;5074424;28;20451;-84
2023/07/11 12:59:28;;;;;;;3.60;2.70;;;35.80;99.90;;;;;;5077707;28;20545;-84
2023/07/11 13:01:58;;;;;;;3.50;2.23;;;35.80;99.90;;;;;;5072662;28;20471;-83
2023/07/11 13:04:33;;;;;;;3.40;2.90;;;35.90;99.90;;;;;;5075694;28;20522;-83
2023/07/11 13:07:00;;;;;;;5.80;3.53;;;36.10;99.90;;;;;;5075736;28;20477;-85
2023/07/11 13:09:27;;;;;;;7.97;2.90;;;36.20;99.90;;;;;;5075040;28;20486;-82
2023/07/11 13:11:54;;;;;;;6.03;2.93;;;36.20;99.90;;;;;;5080041;28;20575;-85
2023/07/11 13:14:22;;;;;;;4.47;3.07;;;36.20;99.90;;;;;;5075088;28;20530;-82